Ana Sayfa
METAR-TAF:

METAR-TAF

Havaalanları :

Wonderboom Airport

Pretoria, Güney Afrika

Enlem: 25-39S, Boylam: 028-13E, yükseklik: 1248 m

Güncel hava durumu gözlemi

Rapor saat 12:00 UTC de 19 saat ve 27 dakika önce yapıldı.
Rüzgar kuzey/kuzeybatıdan 8 kt
Sıcaklık 32°C
Nem 13%
Basınç 1020 hPa
Görüş mesafesi 10 km veya daha fazla
1500 m altında bulut yok ve kümülonimbus yok

METAR: FAWB 141200Z 33008KT CAVOK 32/00 Q1020

Saat: 09:27 (07:27 UTC)

Tahmin

Rapor saat 06:00 UTC de 1 saat ve 27 dakika önce yapıldı.
Ayın 15'si saat 07 UTC'den ayın 15'si saat 18 UTC'ye kadar geçerli Tahmin
Rüzgar değişken yönden 2 kt
Görüş mesafesi 10 km veya daha fazla
1500 m altında bulut yok ve kümülonimbus yok
Dönüşüyor
ayın 15'si saat 08 UTC'den ayın 15'si saat 10 UTC'ye kadar
Rüzgar kuzeybatıdan 8 kt

TAF: FAWB 150600Z 1507/1518 VRB02KT CAVOK TX32/1513Z TN12/1507Z BECMG 1508/1510 31008KT

4.000'den fazla havaalanı için hava durumu gözlemleri ve tahminleri (METAR ve TAF raporları).

Kullanılabilir istasyonlar harita üzerinde sarı ve kırmızı noktalarla gösterilir.

İstasyonun adını görmek için fareyi noktanın üzerinde gezdirin.

Sonrasında hava gözlem ve tahminlerini görmek için tıklayın.

Haritayı değiştirmek için: yaklaştırmak için siyah artı işaretli yeşil düğmeye ve uzaklaştırmak için de eksi işaretli düğmeye hızla tıklayın; bitişik haritalar için yeşil okları kullanın.


METAR-TAF: